Time;durP1;ratioP1;P1;durP2;ratioP2;P2;SDS_P1;SDS_P2;PMS_P1;PMS_P2;Temp;Humidity;BMP_temperature;BMP_pressure;BME280_temperature;BME280_humidity;BME280_pressure;Samples;Min_cycle;Max_cycle;Signal;HPM_P1;HPM_P2
2023/06/13 00:01:38;;;;;;;3.57;2.00;;;;;;;17.19;100.00;150357.47;6245799;23;20543;-57
2023/06/13 00:04:05;;;;;;;3.13;2.23;;;;;;;17.17;100.00;150353.69;6245833;23;20175;-57
2023/06/13 00:06:34;;;;;;;2.53;2.13;;;;;;;17.14;100.00;150344.78;6245354;23;20163;-57
2023/06/13 00:09:02;;;;;;;2.30;2.20;;;;;;;17.06;100.00;150324.47;6245667;23;20167;-57
2023/06/13 00:11:30;;;;;;;4.20;2.20;;;;;;;16.89;100.00;150283.78;6245799;23;20157;-57
2023/06/13 00:13:57;;;;;;;2.10;2.00;;;;;;;16.96;100.00;150300.31;6245228;23;20256;-56
2023/06/13 00:16:25;;;;;;;2.93;1.87;;;;;;;16.89;100.00;150283.78;6245305;23;20165;-58
2023/06/13 00:18:53;;;;;;;2.60;2.00;;;;;;;16.73;100.00;150243.16;6245233;23;20163;-57
2023/06/13 00:21:20;;;;;;;1.97;1.80;;;;;;;16.80;100.00;150259.69;6245242;23;20211;-57
2023/06/13 00:23:47;;;;;;;2.30;2.07;;;;;;;16.79;100.00;150258.41;6245689;23;20484;-58
2023/06/13 00:26:14;;;;;;;3.60;2.03;;;;;;;16.79;100.00;150257.13;6245615;23;20652;-56
2023/06/13 00:28:42;;;;;;;4.73;2.17;;;;;;;16.83;100.00;150267.28;6245477;23;20271;-57
2023/06/13 00:31:10;;;;;;;6.30;1.93;;;;;;;16.77;100.00;150252.03;6245094;23;20233;-56
2023/06/13 00:33:38;;;;;;;4.37;1.90;;;;;;;16.87;100.00;150278.72;6245358;23;20180;-57
2023/06/13 00:36:05;;;;;;;1.93;1.83;;;;;;;16.96;100.00;150299.03;6245460;23;20157;-57
2023/06/13 00:38:33;;;;;;;2.50;2.10;;;;;;;16.84;100.00;150269.84;6245046;23;20163;-57
2023/06/13 00:40:59;;;;;;;2.50;1.90;;;;;;;16.97;100.00;150301.59;6245380;23;20161;-57
2023/06/13 00:43:28;;;;;;;7.30;2.40;;;;;;;16.96;100.00;150299.03;6245230;23;20607;-57
2023/06/13 00:46:00;;;;;;;1.90;1.80;;;;;;;17.04;100.00;150319.38;6244904;23;20240;-58
2023/06/13 00:48:28;;;;;;;2.07;1.97;;;;;;;17.06;100.00;150324.47;6244765;23;20168;-58
2023/06/13 00:50:56;;;;;;;2.57;2.40;;;;;;;16.96;100.00;150299.03;6218488;23;20231;-58
2023/06/13 00:53:23;;;;;;;3.97;2.10;;;;;;;16.86;100.00;150276.19;6244755;23;20164;-57
2023/06/13 00:55:51;;;;;;;2.23;2.13;;;;;;;16.92;100.00;150290.16;6245225;23;20214;-58
2023/06/13 00:58:18;;;;;;;2.17;2.07;;;;;;;16.91;100.00;150287.59;6244931;23;20164;-57
2023/06/13 01:00:45;;;;;;;2.53;2.07;;;;;;;16.79;100.00;150257.13;6245195;23;20157;-57
2023/06/13 01:03:15;;;;;;;2.20;2.10;;;;;;;16.70;100.00;150235.53;6245416;23;20157;-57
2023/06/13 01:05:43;;;;;;;2.70;2.33;;;;;;;16.77;100.00;150253.31;6245057;23;20470;-57
2023/06/13 01:08:14;;;;;;;5.30;2.43;;;;;;;16.83;100.00;150268.56;6245003;23;20240;-57
2023/06/13 01:10:42;;;;;;;2.70;2.60;;;;;;;16.82;100.00;150266.00;6244743;23;20163;-57
2023/06/13 01:13:15;;;;;;;2.53;2.33;;;;;;;16.87;100.00;150277.44;6245004;23;20495;-57
2023/06/13 01:15:52;;;;;;;2.37;2.27;;;;;;;16.88;100.00;150280.00;6244853;23;20177;-57
2023/06/13 01:18:24;;;;;;;2.40;2.20;;;;;;;16.88;100.00;150280.00;6245060;23;20235;-56
2023/06/13 01:20:56;;;;;;;2.57;2.37;;;;;;;16.73;100.00;150243.16;6245203;23;20497;-57
2023/06/13 01:23:31;;;;;;;3.97;2.50;;;;;;;16.71;100.00;150238.09;6245049;23;20477;-56
2023/06/13 01:26:04;;;;;;;3.30;2.00;;;;;;;16.81;100.00;150263.47;6244651;23;20163;-57
2023/06/13 01:28:35;;;;;;;2.60;2.40;;;;;;;16.66;100.00;150225.38;6244732;23;20172;-56
2023/06/13 01:31:03;;;;;;;3.47;2.83;;;;;;;16.80;100.00;150259.69;6244509;23;20160;-57
2023/06/13 01:33:31;;;;;;;3.63;2.23;;;;;;;16.83;100.00;150267.28;6244747;23;20171;-58
2023/06/13 01:35:58;;;;;;;2.63;2.53;;;;;;;16.66;100.00;150225.38;6244652;23;20468;-57
2023/06/13 01:38:26;;;;;;;2.57;2.37;;;;;;;16.98;100.00;150304.09;6244953;23;20157;-57
2023/06/13 01:40:53;;;;;;;2.57;2.47;;;;;;;16.62;100.00;150213.94;6244413;23;20165;-57
2023/06/13 01:43:20;;;;;;;2.63;2.50;;;;;;;16.68;100.00;150230.44;6244485;23;20197;-57
2023/06/13 01:45:50;;;;;;;2.93;2.73;;;;;;;16.56;100.00;150198.63;6244285;23;20153;-57
2023/06/13 01:48:35;;;;;;;2.60;2.50;;;;;;;16.48;100.00;150179.59;6244768;23;20568;-57
2023/06/13 01:51:15;;;;;;;3.83;3.10;;;;;;;16.53;100.00;150191.03;6244389;23;20240;-56
2023/06/13 01:53:50;;;;;;;2.60;2.50;;;;;;;16.51;100.00;150187.22;6244595;23;20635;-56
2023/06/13 01:56:22;;;;;;;2.63;2.47;;;;;;;16.34;100.00;150144.03;6244798;23;20164;-57
2023/06/13 01:58:53;;;;;;;2.83;2.73;;;;;;;16.43;100.00;150166.91;6244694;23;20523;-56
2023/06/13 02:01:24;;;;;;;2.70;2.60;;;;;;;16.38;100.00;150154.19;6244311;23;20577;-57
2023/06/13 02:03:51;;;;;;;2.87;2.77;;;;;;;16.20;100.00;150109.78;6244292;23;20157;-58
2023/06/13 02:06:18;;;;;;;2.30;2.20;;;;;;;16.27;100.00;150127.56;6244555;23;20157;-57
2023/06/13 02:08:45;;;;;;;2.57;2.40;;;;;;;16.35;100.00;150146.59;6244135;23;20172;-56
2023/06/13 02:11:12;;;;;;;2.70;2.60;;;;;;;16.33;100.00;150141.53;6244565;23;20157;-57
2023/06/13 02:13:39;;;;;;;2.70;2.53;;;;;;;16.50;100.00;150183.44;6244683;23;20157;-57
2023/06/13 02:16:06;;;;;;;2.83;2.63;;;;;;;16.41;100.00;150161.84;6244183;23;20180;-57
2023/06/13 02:18:35;;;;;;;2.50;2.40;;;;;;;16.36;100.00;150150.41;6244495;23;20167;-57
2023/06/13 02:21:02;;;;;;;2.67;2.57;;;;;;;16.53;100.00;150191.03;6244253;23;20196;-56
2023/06/13 02:23:28;;;;;;;2.70;2.50;;;;;;;16.49;100.00;150182.16;6244409;23;20519;-57
2023/06/13 02:25:57;;;;;;;2.33;2.23;;;;;;;16.45;100.00;150173.28;6244495;23;20600;-58
2023/06/13 02:28:24;;;;;;;2.57;2.20;;;;;;;16.51;100.00;150187.22;6244616;23;20228;-57
2023/06/13 02:30:50;;;;;;;2.17;2.07;;;;;;;16.54;100.00;150194.84;6244230;23;20157;-58
2023/06/13 02:33:20;;;;;;;2.47;2.37;;;;;;;16.39;100.00;150158.00;6244387;23;20171;-57
2023/06/13 02:35:48;;;;;;;2.33;2.23;;;;;;;16.33;100.00;150142.81;6244181;23;20579;-58
2023/06/13 02:38:15;;;;;;;2.40;2.30;;;;;;;16.29;100.00;150131.38;6243924;23;20168;-57
2023/06/13 02:40:42;;;;;;;2.50;2.40;;;;;;;16.05;100.00;150070.41;6243961;23;20163;-58
2023/06/13 02:43:09;;;;;;;6.43;2.53;;;;;;;16.31;100.00;150136.44;6243852;23;20705;-57
2023/06/13 02:45:36;;;;;;;2.53;2.33;;;;;;;16.42;100.00;150164.38;6244008;23;20157;-57
2023/06/13 02:48:03;;;;;;;2.60;2.33;;;;;;;16.48;100.00;150178.31;6243836;23;20163;-58
2023/06/13 02:50:30;;;;;;;2.30;2.20;;;;;;;16.42;100.00;150164.38;6243876;23;20167;-61
2023/06/13 02:52:58;;;;;;;2.73;2.53;;;;;;;16.25;100.00;150121.22;6217237;23;20168;-57
2023/06/13 02:55:28;;;;;;;2.87;2.77;;;;;;;16.00;100.00;150060.25;6244028;23;20184;-58
2023/06/13 02:57:55;;;;;;;2.73;2.63;;;;;;;16.07;100.00;150075.50;6244248;23;20639;-59
2023/06/13 03:00:22;;;;;;;2.90;2.80;;;;;;;16.09;100.00;150081.81;6244431;23;20179;-56
2023/06/13 03:02:49;;;;;;;2.77;2.57;;;;;;;16.25;100.00;150121.22;6243775;23;20163;-57
2023/06/13 03:05:16;;;;;;;3.13;2.83;;;;;;;16.43;100.00;150166.91;6244629;23;20491;-57
2023/06/13 03:07:46;;;;;;;3.07;2.80;;;;;;;16.61;100.00;150212.66;6244156;23;20188;-57
2023/06/13 03:10:15;;;;;;;2.47;2.30;;;;;;;16.81;100.00;150263.47;6244104;23;20168;-57
2023/06/13 03:12:42;;;;;;;3.83;2.33;;;;;;;17.20;100.00;150361.28;6244754;23;20159;-57
2023/06/13 03:15:10;;;;;;;3.60;3.30;;;;;;;17.11;100.00;150338.41;6245923;23;20177;-58
2023/06/13 03:17:37;;;;;;;3.03;2.87;;;;;;;17.82;100.00;150515.13;6245935;23;20157;-58
2023/06/13 03:20:05;;;;;;;2.60;2.50;;;;;;;18.29;100.00;150634.59;6246344;23;20161;-57
2023/06/13 03:22:32;;;;;;;3.43;2.87;;;;;;;18.76;100.00;150752.91;6246196;23;20242;-58
2023/06/13 03:25:04;;;;;;;3.67;2.83;;;;;;;18.61;100.00;150716.06;6245678;23;20236;-58
2023/06/13 03:27:33;;;;;;;2.70;2.60;;;;;;;18.43;100.00;150668.94;6246250;23;20492;-58
2023/06/13 03:29:59;;;;;;;2.90;2.70;;;;;;;18.14;100.00;150596.47;6246098;23;20164;-57
2023/06/13 03:32:26;;;;;;;2.87;2.60;;;;;;;17.63;100.00;150468.06;6246401;23;20161;-57
2023/06/13 03:34:53;;;;;;;3.00;2.33;;;;;;;17.61;100.00;150464.25;6246040;23;20181;-57
2023/06/13 03:37:20;;;;;;;3.23;2.40;;;;;;;17.88;100.00;150530.34;6245736;23;20157;-58
2023/06/13 03:39:47;;;;;;;2.60;2.50;;;;;;;17.97;100.00;150553.22;6246165;23;20543;-58
2023/06/13 03:42:14;;;;;;;3.43;2.43;;;;;;;18.05;100.00;150573.56;6246003;23;20157;-57
2023/06/13 03:44:46;;;;;;;2.80;2.60;;;;;;;17.63;100.00;150468.06;6245651;23;20200;-58
2023/06/13 03:47:13;;;;;;;3.30;2.43;;;;;;;17.74;100.00;150497.28;6245686;23;20163;-57
2023/06/13 03:49:40;;;;;;;3.00;2.90;;;;;;;17.83;100.00;150518.91;6245629;23;20211;-57
2023/06/13 03:52:08;;;;;;;3.57;3.30;;;;;;;17.86;100.00;150525.28;6245534;23;20169;-57
2023/06/13 03:54:35;;;;;;;3.03;2.93;;;;;;;17.80;100.00;150511.28;6245614;23;20157;-57
2023/06/13 03:57:02;;;;;;;4.00;2.83;;;;;;;17.60;100.00;150461.75;6245957;23;20157;-57
2023/06/13 03:59:30;;;;;;;2.97;2.77;;;;;;;17.32;100.00;150390.50;6245930;23;20242;-56
2023/06/13 04:01:58;;;;;;;3.10;2.90;;;;;;;17.42;100.00;150414.66;6245803;23;20533;-57
2023/06/13 04:04:26;;;;;;;3.13;3.03;;;;;;;17.53;100.00;150442.59;6245766;23;20169;-62
2023/06/13 04:06:55;;;;;;;3.13;2.90;;;;;;;17.77;100.00;150503.69;6245397;23;20236;-58
2023/06/13 04:09:22;;;;;;;4.50;2.60;;;;;;;18.05;100.00;150573.56;6245889;23;20157;-57
2023/06/13 04:11:49;;;;;;;2.70;2.60;;;;;;;17.91;100.00;150539.22;6245811;23;20161;-57
2023/06/13 04:14:16;;;;;;;2.43;2.33;;;;;;;18.09;100.00;150583.75;6245804;23;20626;-58
2023/06/13 04:16:44;;;;;;;3.20;3.10;;;;;;;18.18;100.00;150607.91;6245291;23;20181;-57
2023/06/13 04:19:14;;;;;;;2.90;2.70;;;;;;;18.14;100.00;150597.75;6245896;23;20496;-58
2023/06/13 04:21:41;;;;;;;3.27;2.97;;;;;;;18.43;100.00;150670.22;6245710;23;20656;-58
2023/06/13 04:24:08;;;;;;;3.93;2.67;;;;;;;18.23;100.00;150620.63;6245406;23;20530;-57
2023/06/13 04:26:36;;;;;;;5.23;2.53;;;;;;;18.53;100.00;150694.44;6245614;23;20201;-57
2023/06/13 04:29:03;;;;;;;3.63;2.50;;;;;;;18.17;100.00;150605.34;6245735;23;20223;-58
2023/06/13 04:31:35;;;;;;;2.70;2.60;;;;;;;17.98;100.00;150555.78;6245311;23;20156;-58
2023/06/13 04:34:03;;;;;;;2.30;2.20;;;;;;;18.02;100.00;150565.97;6245071;23;20259;-58
2023/06/13 04:36:33;;;;;;;2.40;2.30;;;;;;;18.30;100.00;150637.13;6245200;23;20212;-56
2023/06/13 04:39:04;;;;;;;2.30;2.20;;;;;;;18.75;100.00;150749.13;6245528;23;20234;-57
2023/06/13 04:41:34;;;;;;;2.47;2.27;;;;;;;19.09;100.00;150836.91;6245222;23;20215;-57
2023/06/13 04:44:03;;;;;;;2.53;2.33;;;;;;;19.21;100.00;150864.88;6245171;23;20200;-56
2023/06/13 04:46:31;;;;;;;7.70;2.60;;;;;;;19.56;100.00;150955.25;6244966;23;20153;-57
2023/06/13 04:48:58;;;;;;;2.30;2.20;;;;;;;20.00;100.00;151066.00;6245031;23;20508;-58
2023/06/13 04:51:25;;;;;;;3.40;2.80;;;;;;;20.37;100.00;151159.00;6245167;23;20199;-57
2023/06/13 04:53:57;;;;;;;2.70;2.50;;;;;;;20.61;100.00;151217.59;6245576;23;20595;-58
2023/06/13 04:56:24;;;;;;;2.00;1.90;;;;;;;20.76;100.00;151255.78;6245004;23;20498;-58
2023/06/13 04:58:52;;;;;;;2.00;1.90;;;;;;;21.20;100.00;151367.97;6245247;23;20602;-57
2023/06/13 05:01:20;;;;;;;1.93;1.83;;;;;;;21.47;100.00;151434.25;6245239;23;20156;-57
2023/06/13 05:03:49;;;;;;;1.90;1.80;;;;;;;21.38;100.00;151412.56;6244948;23;20236;-58
2023/06/13 05:06:16;;;;;;;3.63;2.28;;;;;;;21.84;100.00;151528.53;6245209;23;20231;-58
2023/06/13 05:08:43;;;;;;;2.33;2.22;;;;;;;22.17;100.00;151612.72;6244751;23;20161;-59
2023/06/13 05:11:11;;;;;;;3.20;1.95;;;;;;;22.19;100.00;151616.56;6244644;23;20161;-55
2023/06/13 05:13:38;;;;;;;2.47;2.00;;;;;;;21.96;100.00;151559.19;6244685;23;20157;-55
2023/06/13 05:16:06;;;;;;;3.33;2.15;;;;;;;21.98;100.00;151563.03;6245006;23;20260;-56
2023/06/13 05:18:33;;;;;;;4.15;2.20;;;;;;;22.20;100.00;151620.38;6244699;23;20158;-56
2023/06/13 05:21:00;;;;;;;2.13;1.90;;;;;;;22.32;100.00;151650.97;6244885;23;20580;-55
2023/06/13 05:23:28;;;;;;;2.47;2.35;;;;;;;22.18;100.00;151615.28;6244914;23;20566;-55
2023/06/13 05:25:55;;;;;;;2.65;2.40;;;;;;;21.92;100.00;151549.00;6244534;23;20159;-55
2023/06/13 05:28:23;;;;;;;4.05;2.83;;;;;;;22.17;100.00;151611.44;6244383;23;20241;-56
2023/06/13 05:30:51;;;;;;;3.17;2.25;;;;;;;22.43;100.00;151676.47;6244201;23;20267;-53
2023/06/13 05:33:18;;;;;;;2.42;2.22;;;;;;;22.65;100.00;151732.59;6244782;23;20630;-56
2023/06/13 05:35:45;;;;;;;4.40;2.90;;;;;;;22.91;100.00;151797.72;6244032;23;20643;-57
2023/06/13 05:38:12;;;;;;;4.43;2.63;;;;;;;22.98;100.00;151815.56;6244658;23;20164;-57
2023/06/13 05:40:40;;;;;;;2.33;2.22;;;;;;;22.50;100.00;151694.31;6245077;23;20165;-54
2023/06/13 05:43:08;;;;;;;2.28;2.05;;;;;;;22.48;100.00;151689.25;6217640;23;20554;-55
2023/06/13 05:45:36;;;;;;;3.10;2.90;;;;;;;22.50;100.00;151695.59;6244425;23;20165;-54
2023/06/13 05:48:03;;;;;;;2.67;2.58;;;;;;;22.30;100.00;151645.88;6244879;23;20429;-55
2023/06/13 05:50:30;;;;;;;2.65;2.47;;;;;;;22.57;100.00;151712.22;6243992;23;20231;-55
2023/06/13 05:52:56;;;;;;;5.85;3.58;;;;;;;22.61;100.00;151722.41;6243979;23;20168;-56
2023/06/13 05:55:23;;;;;;;4.80;2.17;;;;;;;22.86;100.00;151786.22;6244053;23;20176;-55
2023/06/13 05:57:51;;;;;;;3.47;2.20;;;;;;;23.53;100.00;151954.69;6243783;23;20162;-54
2023/06/13 06:00:18;;;;;;;6.10;2.20;;;;;;;23.01;100.00;151824.47;6244004;23;20161;-55
2023/06/13 06:02:48;;;;;;;11.90;3.30;;;;;;;22.93;100.00;151804.06;6244050;23;20161;-57
2023/06/13 06:05:15;;;;;;;2.53;2.42;;;;;;;22.53;100.00;151703.25;6244622;23;20507;-56
2023/06/13 06:07:45;;;;;;;2.20;2.10;;;;;;;22.73;100.00;151754.34;6243917;23;20168;-56
2023/06/13 06:10:13;;;;;;;8.18;2.95;;;;;;;22.93;100.00;151804.06;6244455;23;20157;-57
2023/06/13 06:12:40;;;;;;;2.95;2.85;;;;;;;22.53;100.00;151702.00;6244129;23;20161;-57
2023/06/13 06:15:08;;;;;;;15.63;3.00;;;;;;;22.21;100.00;151621.66;6244438;23;20157;-57
2023/06/13 06:17:35;;;;;;;2.60;2.50;;;;;;;22.54;100.00;151704.53;6243938;23;20240;-57
2023/06/13 06:20:06;;;;;;;3.42;1.80;;;;;;;23.25;100.00;151884.47;6244360;23;20614;-57
2023/06/13 06:22:35;;;;;;;2.03;1.92;;;;;;;24.36;100.00;152164.06;6244213;23;20188;-65
2023/06/13 06:25:02;;;;;;;5.18;2.17;;;;;;;24.85;100.00;152287.97;6244868;23;20239;-63
2023/06/13 06:27:29;;;;;;;2.00;1.90;;;;;;;24.78;100.00;152271.34;6244956;23;20161;-63
2023/06/13 06:29:56;;;;;;;2.50;2.40;;;;;;;25.24;100.00;152387.69;6245746;23;20215;-62
2023/06/13 06:32:23;;;;;;;4.00;2.28;;;;;;;25.96;100.00;152567.91;6245342;23;20161;-59
2023/06/13 06:34:50;;;;;;;3.35;2.20;;;;;;;25.97;100.00;152570.47;6244009;23;20644;-58
2023/06/13 06:37:18;;;;;;;4.57;2.30;;;;;;;26.77;100.00;152775.09;6244167;23;20508;-60
2023/06/13 06:39:45;;;;;;;3.45;2.35;;;;;;;27.28;95.93;152903.03;6243981;23;20448;-59
2023/06/13 06:42:15;;;;;;;2.10;2.00;;;;;;;27.20;93.29;152882.56;6244053;23;20171;-59
2023/06/13 06:44:42;;;;;;;2.40;2.00;;;;;;;26.67;96.67;152748.22;6243588;23;20535;-58
2023/06/13 06:47:09;;;;;;;4.53;2.28;;;;;;;26.32;100.00;152659.97;6244185;23;20153;-59
2023/06/13 06:49:36;;;;;;;6.35;2.38;;;;;;;26.03;100.00;152585.78;6243712;23;20196;-59
2023/06/13 06:52:03;;;;;;;4.15;2.03;;;;;;;25.69;100.00;152500.16;6243963;23;20157;-59
2023/06/13 06:54:31;;;;;;;2.15;2.05;;;;;;;26.29;100.00;152652.31;6243838;23;20233;-59
2023/06/13 06:56:58;;;;;;;2.53;1.92;;;;;;;26.12;100.00;152610.09;6243778;23;20191;-58
2023/06/13 06:59:25;;;;;;;3.58;1.75;;;;;;;26.75;100.00;152768.66;6243456;23;20163;-59
2023/06/13 07:01:52;;;;;;;2.33;2.13;;;;;;;26.98;95.90;152826.28;6243388;23;20244;-58
2023/06/13 07:04:19;;;;;;;2.50;2.10;;;;;;;26.96;96.54;152821.16;6243790;23;20235;-59
2023/06/13 07:06:46;;;;;;;2.40;2.20;;;;;;;26.68;96.30;152752.06;6243590;23;20481;-59
2023/06/13 07:09:13;;;;;;;6.53;2.13;;;;;;;26.30;99.65;152654.88;6243941;23;20247;-59
2023/06/13 07:11:41;;;;;;;3.17;3.00;;;;;;;25.81;100.00;152532.09;6244033;23;20164;-59
2023/06/13 07:14:08;;;;;;;2.97;1.88;;;;;;;25.68;100.00;152498.84;6243766;23;20240;-58
2023/06/13 07:16:35;;;;;;;3.85;3.42;;;;;;;25.51;100.00;152455.34;6243036;23;20678;-60
2023/06/13 07:19:02;;;;;;;3.25;2.30;;;;;;;24.89;100.00;152299.50;6244132;23;20157;-58
2023/06/13 07:21:30;;;;;;;3.08;2.58;;;;;;;24.88;100.00;152295.66;6243686;23;20243;-58
2023/06/13 07:23:57;;;;;;;2.10;2.00;;;;;;;25.11;100.00;152353.16;6216932;23;20240;-60
2023/06/13 07:26:24;;;;;;;1.98;1.88;;;;;;;25.50;100.00;152451.56;6217385;23;20180;-60
2023/06/13 07:28:52;;;;;;;2.00;1.90;;;;;;;25.71;100.00;152506.56;6217433;23;20157;-59
2023/06/13 07:31:20;;;;;;;2.05;1.90;;;;;;;26.22;100.00;152634.44;6243727;23;20156;-59
2023/06/13 07:33:46;;;;;;;2.38;2.05;;;;;;;26.54;100.00;152714.94;6244019;23;20616;-60
2023/06/13 07:36:16;;;;;;;3.63;2.35;;;;;;;26.42;100.00;152685.56;6243105;23;20197;-60
2023/06/13 07:38:43;;;;;;;1.73;1.73;;;;;;;25.49;100.00;152450.28;6218021;23;20157;-59
2023/06/13 07:41:11;;;;;;;1.95;1.73;;;;;;;25.00;100.00;152326.31;6243844;23;20284;-60
2023/06/13 07:43:38;;;;;;;2.45;1.80;;;;;;;25.17;100.00;152369.75;6243459;23;20224;-59
2023/06/13 07:46:06;;;;;;;3.15;2.10;;;;;;;25.55;100.00;152465.63;6243242;23;20236;-59
2023/06/13 07:48:33;;;;;;;4.03;2.20;;;;;;;26.02;100.00;152583.22;6243851;23;20614;-60
2023/06/13 07:51:00;;;;;;;4.05;2.08;;;;;;;26.37;100.00;152672.75;6242393;23;20615;-60
2023/06/13 07:53:27;;;;;;;2.30;2.20;;;;;;;25.85;100.00;152542.31;6243163;23;20157;-60
2023/06/13 07:55:57;;;;;;;4.97;1.52;;;;;;;25.80;100.00;152528.28;6243044;23;20216;-60
2023/06/13 07:58:24;;;;;;;1.85;1.75;;;;;;;25.42;100.00;152432.34;6243888;23;20164;-59
2023/06/13 08:00:51;;;;;;;2.00;1.90;;;;;;;24.58;100.00;152220.25;6245016;23;20172;-59
2023/06/13 08:03:19;;;;;;;6.00;2.42;;;;;;;24.60;100.00;152225.38;6244984;23;20267;-58
2023/06/13 08:05:46;;;;;;;3.80;2.15;;;;;;;25.08;100.00;152346.75;6245801;23;20173;-59
2023/06/13 08:08:13;;;;;;;1.98;1.70;;;;;;;24.61;100.00;152227.97;6245215;23;20157;-58
2023/06/13 08:10:40;;;;;;;1.80;1.70;;;;;;;24.74;100.00;152259.88;6244970;23;20211;-59
2023/06/13 08:13:07;;;;;;;1.95;1.85;;;;;;;25.06;100.00;152341.66;6245244;23;20161;-59
2023/06/13 08:15:34;;;;;;;2.15;1.95;;;;;;;25.16;100.00;152367.22;6245934;23;20593;-59
2023/06/13 08:18:00;;;;;;;2.13;1.90;;;;;;;25.20;100.00;152377.44;6244731;23;20185;-59
2023/06/13 08:20:29;;;;;;;2.13;2.03;;;;;;;25.29;100.00;152400.41;6246382;23;20515;-58
2023/06/13 08:22:56;;;;;;;3.95;2.00;;;;;;;25.19;100.00;152374.88;6244481;23;20157;-58
2023/06/13 08:25:23;;;;;;;2.03;1.92;;;;;;;25.21;100.00;152378.69;6244481;23;20217;-59
2023/06/13 08:27:50;;;;;;;2.35;2.25;;;;;;;25.43;100.00;152434.91;6245245;23;20219;-59
2023/06/13 08:30:17;;;;;;;2.95;2.45;;;;;;;25.53;100.00;152460.53;6245556;23;20218;-57
2023/06/13 08:32:46;;;;;;;4.35;2.30;;;;;;;25.57;100.00;152470.75;6244686;23;20196;-58
2023/06/13 08:35:13;;;;;;;2.58;2.38;;;;;;;25.57;100.00;152470.75;6245349;23;20156;-58
2023/06/13 08:37:41;;;;;;;4.55;2.10;;;;;;;25.58;100.00;152472.03;6245039;23;20551;-58
2023/06/13 08:40:10;;;;;;;2.15;2.05;;;;;;;25.36;100.00;152417.03;6244434;23;20240;-58
2023/06/13 08:42:38;;;;;;;3.33;2.10;;;;;;;25.28;100.00;152397.91;6244294;23;20596;-58
2023/06/13 08:45:06;;;;;;;2.70;2.58;;;;;;;25.24;100.00;152387.69;6245139;23;20581;-58
2023/06/13 08:47:33;;;;;;;2.47;2.28;;;;;;;25.32;100.00;152408.13;6244853;23;20161;-59
2023/06/13 08:50:00;;;;;;;3.05;2.85;;;;;;;25.37;100.00;152420.91;6244929;23;20156;-58
2023/06/13 08:52:34;;;;;;;5.75;2.63;;;;;;;25.59;100.00;152474.63;6245128;23;20535;-58
2023/06/13 08:55:07;;;;;;;6.28;2.60;;;;;;;25.68;100.00;152498.84;6244939;23;20488;-59
2023/06/13 08:57:36;;;;;;;2.78;2.60;;;;;;;25.49;100.00;152450.28;6244784;23;20254;-59
2023/06/13 09:00:09;;;;;;;3.20;3.00;;;;;;;25.40;100.00;152428.56;6245206;23;20211;-59
2023/06/13 09:02:37;;;;;;;2.88;2.70;;;;;;;25.42;100.00;152433.63;6244517;23;20164;-59
2023/06/13 09:05:04;;;;;;;7.18;3.33;;;;;;;25.39;100.00;152424.69;6245393;23;20251;-59
2023/06/13 09:07:33;;;;;;;4.75;2.90;;;;;;;25.15;100.00;152363.38;6244780;23;20593;-59
2023/06/13 09:10:02;;;;;;;2.60;2.50;;;;;;;25.46;100.00;152443.84;6244416;23;20164;-59
2023/06/13 09:12:30;;;;;;;3.25;2.80;;;;;;;25.42;100.00;152432.34;6244739;23;20192;-58
2023/06/13 09:14:57;;;;;;;5.15;2.90;;;;;;;25.34;100.00;152413.19;6244501;23;20624;-59
2023/06/13 09:17:24;;;;;;;3.53;2.50;;;;;;;25.47;100.00;152446.41;6244274;23;20183;-58
2023/06/13 09:19:51;;;;;;;7.35;2.83;;;;;;;25.28;100.00;152396.59;6244591;23;20161;-59
2023/06/13 09:22:18;;;;;;;3.20;3.00;;;;;;;25.33;100.00;152409.41;6217449;23;20168;-57
2023/06/13 09:24:46;;;;;;;3.03;2.63;;;;;;;25.57;100.00;152470.75;6244401;23;20157;-58
2023/06/13 09:27:15;;;;;;;2.90;2.80;;;;;;;25.76;100.00;152519.31;6244453;23;20160;-57
2023/06/13 09:29:42;;;;;;;3.50;2.90;;;;;;;25.54;100.00;152463.09;6244229;23;20161;-59
2023/06/13 09:32:13;;;;;;;3.58;3.38;;;;;;;25.85;100.00;152542.31;6244273;23;20164;-59
2023/06/13 09:34:41;;;;;;;5.60;4.45;;;;;;;25.89;100.00;152552.53;6244140;23;20194;-58
2023/06/13 09:37:11;;;;;;;3.70;3.40;;;;;;;26.07;100.00;152596.00;6244061;23;20188;-59
2023/06/13 09:39:47;;;;;;;4.63;3.45;;;;;;;26.19;100.00;152626.69;6218014;23;20492;-59
2023/06/13 09:42:16;;;;;;;2.53;2.40;;;;;;;26.07;100.00;152596.00;6244206;23;20163;-59
2023/06/13 09:44:43;;;;;;;3.10;2.80;;;;;;;25.87;100.00;152547.44;6244519;23;20667;-59
2023/06/13 09:47:21;;;;;;;4.93;3.60;;;;;;;26.04;100.00;152588.34;6244871;23;20237;-57
2023/06/13 09:49:48;;;;;;;3.88;3.67;;;;;;;26.07;100.00;152596.00;6244310;23;20160;-58
2023/06/13 09:52:15;;;;;;;3.13;2.88;;;;;;;25.88;100.00;152548.72;6243904;23;20247;-59
2023/06/13 09:54:45;;;;;;;6.72;3.80;;;;;;;25.44;100.00;152437.50;6244247;23;20597;-59
2023/06/13 09:57:12;;;;;;;4.63;2.85;;;;;;;26.01;100.00;152580.69;6244121;23;20255;-63
2023/06/13 09:59:41;;;;;;;3.38;2.72;;;;;;;26.07;100.00;152596.00;6244059;23;20231;-63
2023/06/13 10:02:08;;;;;;;3.00;2.80;;;;;;;25.87;100.00;152546.16;6244258;23;20161;-63
2023/06/13 10:04:38;;;;;;;3.67;3.00;;;;;;;25.89;100.00;152551.25;6244371;23;20169;-64
2023/06/13 10:07:05;;;;;;;7.47;2.90;;;;;;;25.66;100.00;152493.78;6244091;23;20456;-64
2023/06/13 10:09:32;;;;;;;3.20;3.00;;;;;;;25.39;100.00;152424.69;6243737;23;20175;-64
2023/06/13 10:12:00;;;;;;;3.00;2.80;;;;;;;25.56;100.00;152468.19;6244410;23;20161;-63
2023/06/13 10:14:30;;;;;;;2.58;2.47;;;;;;;25.78;100.00;152524.44;6244393;23;20180;-65
2023/06/13 10:17:03;;;;;;;4.47;2.60;;;;;;;25.85;100.00;152542.31;6244039;23;20181;-64
2023/06/13 10:19:33;;;;;;;3.47;3.17;;;;;;;25.21;100.00;152378.69;6243904;23;20171;-63
2023/06/13 10:22:01;;;;;;;10.95;3.20;;;;;;;25.32;100.00;152406.81;6243694;23;20161;-63
2023/06/13 10:24:28;;;;;;;5.97;3.10;;;;;;;25.14;100.00;152360.81;6244334;23;20482;-63
2023/06/13 10:26:58;;;;;;;3.20;2.92;;;;;;;25.05;100.00;152337.81;6243834;23;20154;-63
2023/06/13 10:30:13;;;;;;;5.68;3.22;;;;;;;24.95;100.00;152314.81;6244146;23;20243;-64
2023/06/13 10:33:14;;;;;;;3.58;3.30;;;;;;;24.74;100.00;152259.88;6121413;23;20181;-64
2023/06/13 10:35:56;;;;;;;3.08;2.95;;;;;;;24.97;100.00;152318.66;6242633;23;20180;-65
2023/06/13 10:38:53;;;;;;;3.42;3.28;;;;;;;25.26;100.00;152391.47;6244266;23;20181;-65
2023/06/13 10:41:58;;;;;;;3.92;2.95;;;;;;;25.36;100.00;152417.03;6243640;23;20178;-64
2023/06/13 10:44:32;;;;;;;4.80;2.58;;;;;;;25.39;100.00;152425.97;6236978;23;20473;-63
2023/06/13 10:47:00;;;;;;;5.30;2.85;;;;;;;25.26;100.00;152392.75;6244072;23;20153;-64
2023/06/13 10:49:37;;;;;;;2.55;2.42;;;;;;;25.58;100.00;152472.03;6243616;23;20215;-63
2023/06/13 10:52:05;;;;;;;3.70;2.70;;;;;;;25.77;100.00;152521.88;6243840;23;20600;-64
2023/06/13 10:54:32;;;;;;;8.77;4.47;;;;;;;25.94;100.00;152564.03;6243746;23;20169;-64
2023/06/13 10:57:01;;;;;;;2.97;2.80;;;;;;;25.96;100.00;152567.91;6243923;23;20176;-64
2023/06/13 10:59:36;;;;;;;3.55;3.15;;;;;;;26.08;100.00;152598.56;6244366;23;20658;-63
2023/06/13 11:02:03;;;;;;;2.63;2.50;;;;;;;25.95;100.00;152565.31;6243982;23;20218;-64
2023/06/13 11:04:31;;;;;;;3.88;3.25;;;;;;;25.33;100.00;152410.63;6244166;23;20246;-64
2023/06/13 11:07:28;;;;;;;6.90;3.72;;;;;;;25.74;100.00;152514.22;6243415;23;20153;-64
2023/06/13 11:10:11;;;;;;;2.33;2.22;;;;;;;26.21;100.00;152633.16;6244045;23;20163;-63
2023/06/13 11:12:38;;;;;;;9.60;2.83;;;;;;;26.31;100.00;152658.69;6245270;23;20157;-64
2023/06/13 11:15:20;;;;;;;4.35;2.72;;;;;;;25.35;100.00;152415.75;6243887;23;20164;-64
2023/06/13 11:18:22;;;;;;;5.60;2.72;;;;;;;25.38;100.00;152423.41;6243666;23;20598;-64
2023/06/13 11:20:50;;;;;;;3.25;2.60;;;;;;;25.89;100.00;152552.53;6244228;23;20187;-64
2023/06/13 11:23:19;;;;;;;4.32;2.50;;;;;;;26.27;100.00;152648.47;6243871;23;20168;-64
2023/06/13 11:25:47;;;;;;;5.80;2.60;;;;;;;26.21;100.00;152633.16;6244810;23;20167;-63